^^

NEARBY METAR REPORTS

KSQI - Sterling Rockfal, Illinois, USA
Distance from station: ESE 17mi, 27km
Updated: 04/24/2018 10:56am
Clear
Clear
 Wind from NE
Wind: NE 6 mph , 9 km/h
Temperature: 64°F , 18°C
Dew Point: 32°F , 0°C
Humidity: 30%
Barometer: 30.06 inHg , 1017.9 hPa
Clouds: Clear
Visibility: 10 miles , 16 km
2018/04/24 15:56 KSQI 241556Z AUTO 04005KT 10SM CLR 18/00 A3006 RMK AO2 SLP197 T01830000 $
KCWI - Clinton Muni, Iowa, USA
Distance from station: W 17mi, 28km
Updated: 04/24/2018 10:56am
Clear
Clear
 Wind from NNE
Wind: NNE 13 mph , 20 km/h
Temperature: 64°F , 18°C
Dew Point: 30°F , -1°C
Humidity: 28%
Barometer: 30.07 inHg , 1018.3 hPa
Clouds: Clear
Visibility: 10 miles , 16 km
2018/04/24 15:56 KCWI 241556Z AUTO 02011KT 10SM CLR 18/M01 A3007 RMK AO2 SLP206 T01831011
KSFY - Savanna/Tritown, Illinois, USA
Distance from station: NNW 17mi, 28km
Updated: 04/24/2018 10:55am
Clear
Clear
 Wind from NNE
Wind: NNE 10 mph , 17 km/h
Temperature: 66°F , 19°C
Dew Point: 27°F , -3°C
Humidity: 22%
Barometer: 30.06 inHg , 1017.9 hPa
Clouds: Clear
Visibility: 10 miles , 16 km
2018/04/24 15:55 KSFY 241555Z AUTO 02009KT 340V040 10SM CLR 19/M03 A3006 RMK AO2 T01861029
KDVN - Davenport/Quad C, Iowa, USA
Distance from station: WSW 34mi, 55km
Updated: 04/24/2018 10:52am
Clear
Clear
 
Temperature: 66°F , 19°C
Dew Point: 28°F , -2°C
Humidity: 24%
Barometer: 30.08 inHg , 1018.6 hPa
Clouds: Clear
Visibility: 10 miles , 16 km
2018/04/24 15:52 KDVN 241552Z AUTO 10SM CLR 19/M02 A3008 RMK AO2 SLP182 T01891022 $
KFEP - Freeport, Illinois, USA
Distance from station: NE 36mi, 58km
Updated: 04/24/2018 10:55am
Clear
Clear
 Wind from N
Wind: N 10 mph , 17 km/h
Temperature: 64°F , 18°C
Dew Point: 28°F , -2°C
Humidity: 26%
Barometer: 30.07 inHg , 1018.3 hPa
Clouds: Clear
Visibility: 10 miles , 16 km
2018/04/24 15:55 KFEP 241555Z AUTO 36009KT 10SM CLR 18/M02 A3007 RMK AO2 T01751018
KMLI - Moline/Quad City, Illinois, USA
Distance from station: SW 38mi, 61km
Updated: 04/24/2018 10:52am
Clear
Clear
 Wind from NNE
Wind: NNE 10 mph , 17 km/h
Temperature: 66°F , 19°C
Dew Point: 30°F , -1°C
Humidity: 26%
Barometer: 30.05 inHg , 1017.6 hPa
Clouds: Clear
Visibility: 10 miles , 16 km
2018/04/24 15:52 KMLI 241552Z 03009KT 10SM CLR 19/M01 A3005 RMK AO2 SLP174 T01941011
KRPJ - Rochelle/Koritz, Illinois, USA
Distance from station: E 46mi, 75km
Updated: 04/24/2018 10:55am
Clear
Clear
 Wind from N
Wind: N 12 mph , 19 km/h
Temperature: 63°F , 17°C
Dew Point: 32°F , 0°C
Humidity: 32%
Barometer: 30.05 inHg , 1017.6 hPa
Clouds: Clear
Visibility: 10 miles , 16 km
2018/04/24 15:55 KRPJ 241555Z AUTO 01010KT 10SM CLR 17/00 A3005 RMK AO2 T01671001
KRFD - Rockford, Illinois, USA
Distance from station: ENE 52mi, 84km
Updated: 04/24/2018 10:54am
Few Clouds
Few Clouds
 Wind from N
Wind: N 9 mph , 15 km/h
Temperature: 64°F , 18°C
Dew Point: 28°F , -2°C
Humidity: 26%
Barometer: 30.06 inHg , 1017.9 hPa
Clouds: Few Clouds
Visibility: 10 miles , 16 km
Cloud details: Few Clouds 25000 ft
2018/04/24 15:54 KRFD 241554Z 01008KT 10SM FEW250 18/M02 A3006 RMK AO2 SLP179 T01831017
KVYS - Peru, Illinois, USA
Distance from station: SE 54mi, 86km
Updated: 04/24/2018 10:55am
Clear
Clear
 Wind from NNE
Wind: NNE 8 mph , 13 km/h
Temperature: 64°F , 18°C
Dew Point: 48°F , 9°C
Humidity: 56%
Barometer: 30.04 inHg , 1017.3 hPa
Clouds: Clear
Visibility: 10 miles , 16 km
2018/04/24 15:55 KVYS 241555Z AUTO 02007KT 10SM CLR 18/09 A3004 RMK AO2 T01780088
KDBQ - Dubuque, Iowa, USA
Distance from station: NW 55mi, 88km
Updated: 04/24/2018 10:53am
Clear
Clear
 Wind from NNE
Wind: NNE 14 mph , 22 km/h
Temperature: 63°F , 17°C
Dew Point: 28°F , -2°C
Humidity: 27%
Barometer: 30.08 inHg , 1018.6 hPa
Clouds: Clear
Visibility: 10 miles , 16 km
2018/04/24 15:53 KDBQ 241553Z 03012KT 10SM CLR 17/M02 A3008 RMK AO2 SLP187 T01721017